sensor_id;sensor_type;location;lat;lon;timestamp;temperature;humidity
41168;DHT22;26906;45.658;9.272;2022-08-18T04:33:09;24.00;99.90
41168;DHT22;26906;45.658;9.272;2022-08-18T04:35:35;24.00;99.90
41168;DHT22;26906;45.658;9.272;2022-08-18T04:38:01;24.00;99.90
41168;DHT22;26906;45.658;9.272;2022-08-18T04:40:26;24.00;99.90
41168;DHT22;26906;45.658;9.272;2022-08-18T04:42:53;24.10;99.90
41168;DHT22;26906;45.658;9.272;2022-08-18T04:45:19;24.10;99.90
41168;DHT22;26906;45.658;9.272;2022-08-18T04:47:45;24.10;99.90
41168;DHT22;26906;45.658;9.272;2022-08-18T04:50:10;24.00;99.90
41168;DHT22;26906;45.658;9.272;2022-08-18T04:52:36;23.90;99.90
41168;DHT22;26906;45.658;9.272;2022-08-18T04:55:20;23.80;99.90
41168;DHT22;26906;45.658;9.272;2022-08-18T04:57:46;23.80;99.90
41168;DHT22;26906;45.658;9.272;2022-08-18T05:00:12;23.80;99.90
41168;DHT22;26906;45.658;9.272;2022-08-18T05:02:39;24.00;99.90
41168;DHT22;26906;45.658;9.272;2022-08-18T05:05:05;23.80;99.90
41168;DHT22;26906;45.658;9.272;2022-08-18T05:07:31;23.70;99.90
41168;DHT22;26906;45.658;9.272;2022-08-18T05:09:58;23.70;99.90
41168;DHT22;26906;45.658;9.272;2022-08-18T05:12:24;23.70;99.90
41168;DHT22;26906;45.658;9.272;2022-08-18T05:14:50;23.60;99.90
41168;DHT22;26906;45.658;9.272;2022-08-18T05:17:16;23.70;99.90
41168;DHT22;26906;45.658;9.272;2022-08-18T05:19:42;23.70;99.90
41168;DHT22;26906;45.658;9.272;2022-08-18T05:22:12;23.50;99.90
41168;DHT22;26906;45.658;9.272;2022-08-18T05:24:44;23.40;99.90
41168;DHT22;26906;45.658;9.272;2022-08-18T05:27:10;23.30;99.90
41168;DHT22;26906;45.658;9.272;2022-08-18T05:29:36;23.10;99.90
41168;DHT22;26906;45.658;9.272;2022-08-18T05:32:03;23.10;99.90
41168;DHT22;26906;45.658;9.272;2022-08-18T05:34:33;23.30;99.90
41168;DHT22;26906;45.658;9.272;2022-08-18T05:40:09;22.40;99.90
41168;DHT22;26906;45.658;9.272;2022-08-18T05:42:38;22.00;99.90
41168;DHT22;26906;45.658;9.272;2022-08-18T05:45:16;21.90;99.90
41168;DHT22;26906;45.658;9.272;2022-08-18T05:47:42;22.10;99.90
41168;DHT22;26906;45.658;9.272;2022-08-18T05:50:18;22.40;99.90
41168;DHT22;26906;45.658;9.272;2022-08-18T05:53:20;22.50;99.90
41168;DHT22;26906;45.658;9.272;2022-08-18T05:56:07;22.80;99.90
41168;DHT22;26906;45.658;9.272;2022-08-18T05:58:54;23.00;99.90
41168;DHT22;26906;45.658;9.272;2022-08-18T06:01:33;23.00;99.90
41168;DHT22;26906;45.658;9.272;2022-08-18T06:04:21;22.90;99.90
41168;DHT22;26906;45.658;9.272;2022-08-18T06:06:49;23.10;99.90
41168;DHT22;26906;45.658;9.272;2022-08-18T06:11:50;23.20;99.90
41168;DHT22;26906;45.658;9.272;2022-08-18T06:14:17;23.10;99.90
41168;DHT22;26906;45.658;9.272;2022-08-18T06:22:24;22.40;99.90
41168;DHT22;26906;45.658;9.272;2022-08-18T06:25:17;22.30;99.90
41168;DHT22;26906;45.658;9.272;2022-08-18T06:30:58;22.30;99.90
41168;DHT22;26906;45.658;9.272;2022-08-18T06:33:55;22.30;99.90
41168;DHT22;26906;45.658;9.272;2022-08-18T06:36:37;22.50;99.90
41168;DHT22;26906;45.658;9.272;2022-08-18T06:41:48;22.70;99.90
41168;DHT22;26906;45.658;9.272;2022-08-18T06:50:24;23.00;99.90
41168;DHT22;26906;45.658;9.272;2022-08-18T06:53:03;23.10;99.90
41168;DHT22;26906;45.658;9.272;2022-08-18T06:55:39;23.20;99.90
41168;DHT22;26906;45.658;9.272;2022-08-18T07:00:54;22.90;99.90
41168;DHT22;26906;45.658;9.272;2022-08-18T07:03:23;22.80;99.90
41168;DHT22;26906;45.658;9.272;2022-08-18T07:08:49;22.90;99.90
41168;DHT22;26906;45.658;9.272;2022-08-18T07:13:49;23.10;99.90
41168;DHT22;26906;45.658;9.272;2022-08-18T07:16:32;23.00;99.90
41168;DHT22;26906;45.658;9.272;2022-08-18T07:19:18;23.10;99.90
41168;DHT22;26906;45.658;9.272;2022-08-18T07:22:07;23.30;99.90
41168;DHT22;26906;45.658;9.272;2022-08-18T07:24:45;23.50;99.90
41168;DHT22;26906;45.658;9.272;2022-08-18T07:27:22;23.80;99.90
41168;DHT22;26906;45.658;9.272;2022-08-18T07:32:42;24.30;99.90
41168;DHT22;26906;45.658;9.272;2022-08-18T07:35:11;24.50;99.90
41168;DHT22;26906;45.658;9.272;2022-08-18T07:37:50;24.60;99.90
41168;DHT22;26906;45.658;9.272;2022-08-18T07:40:36;24.70;99.90
41168;DHT22;26906;45.658;9.272;2022-08-18T07:43:21;24.70;99.90
41168;DHT22;26906;45.658;9.272;2022-08-18T07:45:51;24.70;99.90
41168;DHT22;26906;45.658;9.272;2022-08-18T07:48:24;24.90;99.90
41168;DHT22;26906;45.658;9.272;2022-08-18T07:56:45;24.90;99.90
41168;DHT22;26906;45.658;9.272;2022-08-18T08:02:51;24.90;99.90
41168;DHT22;26906;45.658;9.272;2022-08-18T08:08:10;24.80;99.90
41168;DHT22;26906;45.658;9.272;2022-08-18T08:13:32;24.70;99.90
41168;DHT22;26906;45.658;9.272;2022-08-18T08:21:24;24.70;99.90
41168;DHT22;26906;45.658;9.272;2022-08-18T08:32:08;24.70;99.90
41168;DHT22;26906;45.658;9.272;2022-08-18T08:34:53;24.70;99.90
41168;DHT22;26906;45.658;9.272;2022-08-18T08:37:28;24.70;99.90
41168;DHT22;26906;45.658;9.272;2022-08-18T08:39:59;24.70;99.90
41168;DHT22;26906;45.658;9.272;2022-08-18T08:45:08;24.80;99.90
41168;DHT22;26906;45.658;9.272;2022-08-18T08:47:39;24.80;99.90
41168;DHT22;26906;45.658;9.272;2022-08-18T08:50:14;24.70;99.90
41168;DHT22;26906;45.658;9.272;2022-08-18T08:52:49;24.60;99.90
41168;DHT22;26906;45.658;9.272;2022-08-18T08:55:22;24.50;99.90
41168;DHT22;26906;45.658;9.272;2022-08-18T08:58:18;24.70;99.90
41168;DHT22;26906;45.658;9.272;2022-08-18T09:00:46;24.70;99.90
41168;DHT22;26906;45.658;9.272;2022-08-18T09:03:25;24.70;99.90
41168;DHT22;26906;45.658;9.272;2022-08-18T09:17:15;24.40;99.90
41168;DHT22;26906;45.658;9.272;2022-08-18T09:22:48;24.40;99.90
41168;DHT22;26906;45.658;9.272;2022-08-18T09:42:12;23.40;99.90
41168;DHT22;26906;45.658;9.272;2022-08-18T09:49:56;23.20;99.90
41168;DHT22;26906;45.658;9.272;2022-08-18T09:54:51;23.20;99.90
41168;DHT22;26906;45.658;9.272;2022-08-18T09:57:23;23.30;99.90
41168;DHT22;26906;45.658;9.272;2022-08-18T10:10:39;23.80;99.90
41168;DHT22;26906;45.658;9.272;2022-08-18T10:16:20;23.70;99.90
41168;DHT22;26906;45.658;9.272;2022-08-18T10:21:27;23.60;99.90
41168;DHT22;26906;45.658;9.272;2022-08-18T10:29:09;23.70;99.90
41168;DHT22;26906;45.658;9.272;2022-08-18T10:37:35;23.80;99.90
41168;DHT22;26906;45.658;9.272;2022-08-18T10:45:29;23.80;99.90
41168;DHT22;26906;45.658;9.272;2022-08-18T10:55:59;23.80;99.90
41168;DHT22;26906;45.658;9.272;2022-08-18T11:04:04;23.80;99.90
41168;DHT22;26906;45.658;9.272;2022-08-18T11:06:42;23.90;99.90
41168;DHT22;26906;45.658;9.272;2022-08-18T11:09:12;23.90;99.90
41168;DHT22;26906;45.658;9.272;2022-08-18T11:11:42;23.90;99.90
41168;DHT22;26906;45.658;9.272;2022-08-18T11:17:01;24.00;99.90
41168;DHT22;26906;45.658;9.272;2022-08-18T11:19:38;24.00;99.90
41168;DHT22;26906;45.658;9.272;2022-08-18T11:22:05;24.00;99.90
41168;DHT22;26906;45.658;9.272;2022-08-18T11:24:32;23.90;99.90
41168;DHT22;26906;45.658;9.272;2022-08-18T11:27:23;23.80;99.90
41168;DHT22;26906;45.658;9.272;2022-08-18T11:29:50;23.90;99.90
41168;DHT22;26906;45.658;9.272;2022-08-18T11:37:40;23.80;99.90
41168;DHT22;26906;45.658;9.272;2022-08-18T11:40:32;23.80;99.90
41168;DHT22;26906;45.658;9.272;2022-08-18T11:43:13;23.90;99.90
41168;DHT22;26906;45.658;9.272;2022-08-18T11:45:51;23.80;99.90
41168;DHT22;26906;45.658;9.272;2022-08-18T11:53:57;23.20;99.90
41168;DHT22;26906;45.658;9.272;2022-08-18T11:56:35;23.10;99.90
41168;DHT22;26906;45.658;9.272;2022-08-18T11:59:05;23.10;99.90
41168;DHT22;26906;45.658;9.272;2022-08-18T12:01:54;23.00;99.90
41168;DHT22;26906;45.658;9.272;2022-08-18T12:04:25;23.00;99.90
41168;DHT22;26906;45.658;9.272;2022-08-18T12:09:43;22.70;99.90
41168;DHT22;26906;45.658;9.272;2022-08-18T12:12:25;22.50;99.90
41168;DHT22;26906;45.658;9.272;2022-08-18T12:17:38;22.40;99.90
41168;DHT22;26906;45.658;9.272;2022-08-18T12:20:05;22.70;99.90
41168;DHT22;26906;45.658;9.272;2022-08-18T12:22:37;23.20;99.90
41168;DHT22;26906;45.658;9.272;2022-08-18T12:25:05;23.60;99.90
41168;DHT22;26906;45.658;9.272;2022-08-18T12:27:32;23.90;99.90
41168;DHT22;26906;45.658;9.272;2022-08-18T12:29:59;24.20;99.90
41168;DHT22;26906;45.658;9.272;2022-08-18T12:32:30;24.70;99.90
41168;DHT22;26906;45.658;9.272;2022-08-18T12:34:57;25.00;99.90
41168;DHT22;26906;45.658;9.272;2022-08-18T12:37:26;25.20;99.90
41168;DHT22;26906;45.658;9.272;2022-08-18T12:39:53;25.30;99.90
41168;DHT22;26906;45.658;9.272;2022-08-18T12:42:21;25.40;99.90
41168;DHT22;26906;45.658;9.272;2022-08-18T12:44:46;25.50;99.90
41168;DHT22;26906;45.658;9.272;2022-08-18T12:47:15;25.50;99.90
41168;DHT22;26906;45.658;9.272;2022-08-18T12:49:41;25.60;99.90
41168;DHT22;26906;45.658;9.272;2022-08-18T12:52:08;25.50;99.90
41168;DHT22;26906;45.658;9.272;2022-08-18T12:54:34;25.50;99.90
41168;DHT22;26906;45.658;9.272;2022-08-18T12:57:01;25.40;99.90
41168;DHT22;26906;45.658;9.272;2022-08-18T12:59:27;25.50;99.90
41168;DHT22;26906;45.658;9.272;2022-08-18T13:01:53;25.50;99.90
41168;DHT22;26906;45.658;9.272;2022-08-18T13:04:18;25.40;99.90
41168;DHT22;26906;45.658;9.272;2022-08-18T13:06:48;25.40;99.90
41168;DHT22;26906;45.658;9.272;2022-08-18T13:09:14;25.50;99.90
41168;DHT22;26906;45.658;9.272;2022-08-18T13:11:39;25.40;99.90
41168;DHT22;26906;45.658;9.272;2022-08-18T13:14:06;25.50;99.90
41168;DHT22;26906;45.658;9.272;2022-08-18T13:16:35;25.40;99.90
41168;DHT22;26906;45.658;9.272;2022-08-18T13:19:02;25.40;99.90
41168;DHT22;26906;45.658;9.272;2022-08-18T13:21:28;25.40;99.90
41168;DHT22;26906;45.658;9.272;2022-08-18T13:23:54;25.40;99.90
41168;DHT22;26906;45.658;9.272;2022-08-18T13:26:29;25.50;99.90
41168;DHT22;26906;45.658;9.272;2022-08-18T13:28:55;25.50;99.90
41168;DHT22;26906;45.658;9.272;2022-08-18T13:31:22;25.50;99.90
41168;DHT22;26906;45.658;9.272;2022-08-18T13:33:49;25.50;99.90
41168;DHT22;26906;45.658;9.272;2022-08-18T13:36:15;25.50;99.90
41168;DHT22;26906;45.658;9.272;2022-08-18T13:38:41;25.40;99.90
41168;DHT22;26906;45.658;9.272;2022-08-18T13:41:08;25.30;99.90
41168;DHT22;26906;45.658;9.272;2022-08-18T13:43:41;25.30;99.90
41168;DHT22;26906;45.658;9.272;2022-08-18T13:46:15;25.20;99.90
41168;DHT22;26906;45.658;9.272;2022-08-18T13:48:42;25.10;99.90
41168;DHT22;26906;45.658;9.272;2022-08-18T13:51:09;25.10;99.90
41168;DHT22;26906;45.658;9.272;2022-08-18T13:53:39;25.20;99.90
41168;DHT22;26906;45.658;9.272;2022-08-18T13:56:05;25.20;99.90
41168;DHT22;26906;45.658;9.272;2022-08-18T13:58:31;25.30;99.90
41168;DHT22;26906;45.658;9.272;2022-08-18T14:00:59;25.20;99.90
41168;DHT22;26906;45.658;9.272;2022-08-18T14:03:27;25.20;99.90
41168;DHT22;26906;45.658;9.272;2022-08-18T14:05:52;25.30;99.90
41168;DHT22;26906;45.658;9.272;2022-08-18T14:08:23;25.00;99.90
41168;DHT22;26906;45.658;9.272;2022-08-18T14:10:52;24.90;99.90
41168;DHT22;26906;45.658;9.272;2022-08-18T14:13:19;24.90;99.90
41168;DHT22;26906;45.658;9.272;2022-08-18T14:15:45;24.90;99.90
41168;DHT22;26906;45.658;9.272;2022-08-18T14:18:11;24.90;99.90
41168;DHT22;26906;45.658;9.272;2022-08-18T14:20:36;24.90;99.90
41168;DHT22;26906;45.658;9.272;2022-08-18T14:23:21;24.60;99.90
41168;DHT22;26906;45.658;9.272;2022-08-18T14:26:13;24.70;99.90
41168;DHT22;26906;45.658;9.272;2022-08-18T14:28:57;24.90;99.90
41168;DHT22;26906;45.658;9.272;2022-08-18T14:31:23;24.80;99.90
41168;DHT22;26906;45.658;9.272;2022-08-18T14:33:49;24.90;99.90
41168;DHT22;26906;45.658;9.272;2022-08-18T14:36:16;24.80;99.90
41168;DHT22;26906;45.658;9.272;2022-08-18T14:38:41;24.70;99.90
41168;DHT22;26906;45.658;9.272;2022-08-18T14:41:10;24.80;99.90
41168;DHT22;26906;45.658;9.272;2022-08-18T14:43:37;25.00;99.90
41168;DHT22;26906;45.658;9.272;2022-08-18T14:46:04;24.80;99.90
41168;DHT22;26906;45.658;9.272;2022-08-18T14:48:30;24.80;99.90
41168;DHT22;26906;45.658;9.272;2022-08-18T14:50:57;25.00;99.90
41168;DHT22;26906;45.658;9.272;2022-08-18T14:53:30;25.00;99.90
41168;DHT22;26906;45.658;9.272;2022-08-18T14:55:58;25.30;99.90
41168;DHT22;26906;45.658;9.272;2022-08-18T14:58:29;25.50;99.90
41168;DHT22;26906;45.658;9.272;2022-08-18T15:01:02;25.40;99.90
41168;DHT22;26906;45.658;9.272;2022-08-18T15:03:31;25.40;99.90
41168;DHT22;26906;45.658;9.272;2022-08-18T15:05:59;25.50;99.90
41168;DHT22;26906;45.658;9.272;2022-08-18T15:08:26;25.60;99.90
41168;DHT22;26906;45.658;9.272;2022-08-18T15:10:52;25.60;99.90
41168;DHT22;26906;45.658;9.272;2022-08-18T15:13:18;25.50;99.90
41168;DHT22;26906;45.658;9.272;2022-08-18T15:15:44;25.40;99.90
41168;DHT22;26906;45.658;9.272;2022-08-18T15:18:10;25.50;99.90
41168;DHT22;26906;45.658;9.272;2022-08-18T15:20:36;25.50;99.90
41168;DHT22;26906;45.658;9.272;2022-08-18T15:23:22;25.30;99.90
41168;DHT22;26906;45.658;9.272;2022-08-18T15:26:06;25.00;99.90
41168;DHT22;26906;45.658;9.272;2022-08-18T15:28:32;25.00;99.90
41168;DHT22;26906;45.658;9.272;2022-08-18T15:30:59;25.10;99.90
41168;DHT22;26906;45.658;9.272;2022-08-18T15:33:26;25.00;99.90
41168;DHT22;26906;45.658;9.272;2022-08-18T15:35:53;24.80;99.90
41168;DHT22;26906;45.658;9.272;2022-08-18T15:38:22;24.80;99.90
41168;DHT22;26906;45.658;9.272;2022-08-18T15:40:50;24.90;99.90
41168;DHT22;26906;45.658;9.272;2022-08-18T15:43:16;24.80;99.90
41168;DHT22;26906;45.658;9.272;2022-08-18T15:45:44;24.40;99.90
41168;DHT22;26906;45.658;9.272;2022-08-18T15:48:14;24.10;99.90
41168;DHT22;26906;45.658;9.272;2022-08-18T15:50:42;24.00;99.90
41168;DHT22;26906;45.658;9.272;2022-08-18T15:53:10;24.00;99.90
41168;DHT22;26906;45.658;9.272;2022-08-18T15:55:38;24.00;99.90
41168;DHT22;26906;45.658;9.272;2022-08-18T15:58:07;24.10;99.90
41168;DHT22;26906;45.658;9.272;2022-08-18T16:00:34;24.30;99.90
41168;DHT22;26906;45.658;9.272;2022-08-18T16:03:02;24.40;99.90
41168;DHT22;26906;45.658;9.272;2022-08-18T16:05:31;24.50;99.90
41168;DHT22;26906;45.658;9.272;2022-08-18T16:07:59;24.70;99.90
41168;DHT22;26906;45.658;9.272;2022-08-18T16:10:28;24.70;99.90
41168;DHT22;26906;45.658;9.272;2022-08-18T16:12:54;24.50;99.90
41168;DHT22;26906;45.658;9.272;2022-08-18T16:15:23;24.40;99.90
41168;DHT22;26906;45.658;9.272;2022-08-18T16:17:50;24.50;99.90
41168;DHT22;26906;45.658;9.272;2022-08-18T16:20:18;24.40;99.90
41168;DHT22;26906;45.658;9.272;2022-08-18T16:22:45;24.30;99.90
41168;DHT22;26906;45.658;9.272;2022-08-18T16:25:12;24.30;99.90
41168;DHT22;26906;45.658;9.272;2022-08-18T16:27:38;24.10;99.90
41168;DHT22;26906;45.658;9.272;2022-08-18T16:30:13;24.20;99.90
41168;DHT22;26906;45.658;9.272;2022-08-18T16:32:39;24.40;99.90
41168;DHT22;26906;45.658;9.272;2022-08-18T16:35:05;24.50;99.90
41168;DHT22;26906;45.658;9.272;2022-08-18T16:37:31;24.30;99.90
41168;DHT22;26906;45.658;9.272;2022-08-18T16:39:57;24.40;99.90
41168;DHT22;26906;45.658;9.272;2022-08-18T16:42:23;24.30;99.90
41168;DHT22;26906;45.658;9.272;2022-08-18T16:44:49;24.30;99.90
41168;DHT22;26906;45.658;9.272;2022-08-18T16:47:15;24.10;99.90
41168;DHT22;26906;45.658;9.272;2022-08-18T16:49:46;24.20;99.90
41168;DHT22;26906;45.658;9.272;2022-08-18T16:52:15;24.20;99.90
41168;DHT22;26906;45.658;9.272;2022-08-18T16:54:41;24.10;99.90
41168;DHT22;26906;45.658;9.272;2022-08-18T16:57:10;24.30;99.90
41168;DHT22;26906;45.658;9.272;2022-08-18T16:59:37;24.40;99.90
41168;DHT22;26906;45.658;9.272;2022-08-18T17:02:22;24.40;99.90
41168;DHT22;26906;45.658;9.272;2022-08-18T17:05:08;24.60;99.90
41168;DHT22;26906;45.658;9.272;2022-08-18T17:07:35;24.60;99.90
41168;DHT22;26906;45.658;9.272;2022-08-18T17:10:02;24.70;99.90
41168;DHT22;26906;45.658;9.272;2022-08-18T17:12:29;24.70;99.90
41168;DHT22;26906;45.658;9.272;2022-08-18T17:14:55;24.70;99.90
41168;DHT22;26906;45.658;9.272;2022-08-18T17:17:21;24.60;99.90
41168;DHT22;26906;45.658;9.272;2022-08-18T17:19:48;24.60;99.90
41168;DHT22;26906;45.658;9.272;2022-08-18T17:22:15;24.60;99.90
41168;DHT22;26906;45.658;9.272;2022-08-18T17:24:42;24.60;99.90
41168;DHT22;26906;45.658;9.272;2022-08-18T17:30:12;24.50;99.90
41168;DHT22;26906;45.658;9.272;2022-08-18T17:32:53;24.60;99.90
41168;DHT22;26906;45.658;9.272;2022-08-18T17:35:33;24.50;99.90
41168;DHT22;26906;45.658;9.272;2022-08-18T17:41:16;24.30;99.90
41168;DHT22;26906;45.658;9.272;2022-08-18T17:43:42;24.30;99.90
41168;DHT22;26906;45.658;9.272;2022-08-18T17:46:24;24.30;99.90
41168;DHT22;26906;45.658;9.272;2022-08-18T17:49:17;24.10;99.90
41168;DHT22;26906;45.658;9.272;2022-08-18T17:51:51;24.20;99.90
41168;DHT22;26906;45.658;9.272;2022-08-18T17:54:29;24.20;99.90
41168;DHT22;26906;45.658;9.272;2022-08-18T17:57:00;24.20;99.90
41168;DHT22;26906;45.658;9.272;2022-08-18T17:59:42;23.90;99.90
41168;DHT22;26906;45.658;9.272;2022-08-18T18:02:11;23.90;99.90
41168;DHT22;26906;45.658;9.272;2022-08-18T18:04:41;23.90;99.90
41168;DHT22;26906;45.658;9.272;2022-08-18T18:07:34;23.80;99.90
41168;DHT22;26906;45.658;9.272;2022-08-18T18:10:02;23.70;99.90
41168;DHT22;26906;45.658;9.272;2022-08-18T18:12:31;23.50;99.90
41168;DHT22;26906;45.658;9.272;2022-08-18T18:14:58;23.60;99.90
41168;DHT22;26906;45.658;9.272;2022-08-18T18:17:27;23.50;99.90
41168;DHT22;26906;45.658;9.272;2022-08-18T18:22:37;23.50;99.90
41168;DHT22;26906;45.658;9.272;2022-08-18T18:25:03;23.50;99.90
41168;DHT22;26906;45.658;9.272;2022-08-18T18:27:40;23.50;99.90
41168;DHT22;26906;45.658;9.272;2022-08-18T18:30:18;23.50;99.90
41168;DHT22;26906;45.658;9.272;2022-08-18T18:35:23;23.50;99.90
41168;DHT22;26906;45.658;9.272;2022-08-18T18:37:58;23.50;99.90
41168;DHT22;26906;45.658;9.272;2022-08-18T18:42:54;23.50;99.90
41168;DHT22;26906;45.658;9.272;2022-08-18T18:45:29;23.60;99.90
41168;DHT22;26906;45.658;9.272;2022-08-18T18:48:08;23.60;99.90
41168;DHT22;26906;45.658;9.272;2022-08-18T18:56:19;23.70;99.90
41168;DHT22;26906;45.658;9.272;2022-08-18T19:02:17;23.70;99.90
41168;DHT22;26906;45.658;9.272;2022-08-18T19:07:03;23.70;99.90
41168;DHT22;26906;45.658;9.272;2022-08-18T19:09:46;23.70;99.90
41168;DHT22;26906;45.658;9.272;2022-08-18T19:12:29;23.70;99.90
41168;DHT22;26906;45.658;9.272;2022-08-18T19:15:09;23.70;99.90
41168;DHT22;26906;45.658;9.272;2022-08-18T19:17:52;23.60;99.90
41168;DHT22;26906;45.658;9.272;2022-08-18T19:20:30;23.50;99.90
41168;DHT22;26906;45.658;9.272;2022-08-18T19:25:30;23.40;99.90
41168;DHT22;26906;45.658;9.272;2022-08-18T19:30:37;23.30;99.90
41168;DHT22;26906;45.658;9.272;2022-08-18T19:33:05;23.10;99.90
41168;DHT22;26906;45.658;9.272;2022-08-18T19:35:42;23.00;99.90
41168;DHT22;26906;45.658;9.272;2022-08-18T19:38:20;23.00;99.90
41168;DHT22;26906;45.658;9.272;2022-08-18T19:40:53;22.60;99.90
41168;DHT22;26906;45.658;9.272;2022-08-18T19:43:48;22.60;99.90
41168;DHT22;26906;45.658;9.272;2022-08-18T19:46:32;22.60;99.90
41168;DHT22;26906;45.658;9.272;2022-08-18T19:49:13;22.60;99.90
41168;DHT22;26906;45.658;9.272;2022-08-18T19:51:41;22.60;99.90
41168;DHT22;26906;45.658;9.272;2022-08-18T20:13:56;22.60;99.90
41168;DHT22;26906;45.658;9.272;2022-08-18T20:16:36;22.70;99.90
41168;DHT22;26906;45.658;9.272;2022-08-18T20:22:03;22.70;99.90
41168;DHT22;26906;45.658;9.272;2022-08-18T20:27:52;22.40;99.90
41168;DHT22;26906;45.658;9.272;2022-08-18T20:36:25;22.30;99.90
41168;DHT22;26906;45.658;9.272;2022-08-18T20:38:33;22.50;99.90
41168;DHT22;26906;45.658;9.272;2022-08-18T20:44:18;22.60;99.90
41168;DHT22;26906;45.658;9.272;2022-08-18T20:47:09;22.50;99.90
41168;DHT22;26906;45.658;9.272;2022-08-18T20:52:38;22.40;99.90
41168;DHT22;26906;45.658;9.272;2022-08-18T20:57:34;22.50;99.90
41168;DHT22;26906;45.658;9.272;2022-08-18T21:00:11;22.40;99.90
41168;DHT22;26906;45.658;9.272;2022-08-18T21:02:47;22.30;99.90
41168;DHT22;26906;45.658;9.272;2022-08-18T21:05:21;22.30;99.90
41168;DHT22;26906;45.658;9.272;2022-08-18T21:10:52;22.30;99.90
41168;DHT22;26906;45.658;9.272;2022-08-18T21:15:53;22.30;99.90
41168;DHT22;26906;45.658;9.272;2022-08-18T21:18:21;22.30;99.90
41168;DHT22;26906;45.658;9.272;2022-08-18T21:20:49;22.30;99.90
41168;DHT22;26906;45.658;9.272;2022-08-18T21:25:53;22.30;99.90
41168;DHT22;26906;45.658;9.272;2022-08-18T21:28:21;22.30;99.90
